Time;durP1;ratioP1;P1;durP2;ratioP2;P2;SDS_P1;SDS_P2;PMS_P1;PMS_P2;Temp;Humidity;BMP_temperature;BMP_pressure;BME280_temperature;BME280_humidity;BME280_pressure;Samples;Min_cycle;Max_cycle;Signal;HPM_P1;HPM_P2
2023/11/30 00:00:53;;;;;;;9.00;4.88;;;1.30;67.00;;;;;;5025712;28;20084;-71
2023/11/30 00:03:19;;;;;;;5.90;3.85;;;1.30;66.80;;;;;;5015962;28;20115;-71
2023/11/30 00:05:45;;;;;;;5.35;3.45;;;1.30;66.90;;;;;;5014312;28;20038;-71
2023/11/30 00:08:11;;;;;;;11.98;5.03;;;1.40;66.90;;;;;;5015329;28;20037;-74
2023/11/30 00:10:37;;;;;;;4.40;3.35;;;1.30;67.10;;;;;;5014810;28;20044;-71
2023/11/30 00:13:04;;;;;;;7.70;4.43;;;1.30;66.90;;;;;;5014026;28;20038;-74
2023/11/30 00:15:30;;;;;;;6.93;3.63;;;1.30;66.30;;;;;;5015462;28;20129;-74
2023/11/30 00:17:56;;;;;;;9.65;4.47;;;1.30;67.10;;;;;;5030902;28;20038;-71
2023/11/30 00:20:22;;;;;;;7.35;3.65;;;1.40;67.00;;;;;;5015183;28;20129;-74
2023/11/30 00:22:48;;;;;;;4.68;2.35;;;1.40;67.00;;;;;;5014389;28;20137;-74
2023/11/30 00:25:14;;;;;;;8.32;2.72;;;1.30;67.10;;;;;;5052547;28;20518;-74
2023/11/30 00:27:40;;;;;;;8.23;4.78;;;1.30;67.30;;;;;;5053464;28;20025;-71
2023/11/30 00:30:07;;;;;;;6.47;3.78;;;1.20;67.40;;;;;;5036135;28;20033;-71
2023/11/30 00:32:35;;;;;;;5.78;2.60;;;1.10;67.50;;;;;;5053190;28;20074;-74
2023/11/30 00:35:02;;;;;;;6.55;3.35;;;1.10;67.80;;;;;;5053503;28;20037;-71
2023/11/30 00:37:28;;;;;;;10.30;3.70;;;1.10;67.80;;;;;;5054975;28;20365;-74
2023/11/30 00:39:54;;;;;;;5.63;4.22;;;1.10;67.90;;;;;;5053450;28;20037;-74
2023/11/30 00:42:21;;;;;;;6.38;4.88;;;1.10;67.70;;;;;;5053267;28;20037;-74
2023/11/30 00:44:47;;;;;;;3.80;2.67;;;1.10;67.70;;;;;;5052939;28;20025;-71
2023/11/30 00:47:13;;;;;;;5.05;2.25;;;1.10;67.60;;;;;;5053476;28;20086;-71
2023/11/30 00:49:39;;;;;;;9.52;6.63;;;1.20;67.70;;;;;;5053065;28;20420;-74
2023/11/30 00:52:05;;;;;;;7.70;5.38;;;1.10;67.60;;;;;;5053871;28;20244;-71
2023/11/30 00:54:31;;;;;;;6.07;4.60;;;1.20;67.70;;;;;;5054244;28;20489;-71
2023/11/30 00:56:57;;;;;;;9.25;7.10;;;1.20;67.80;;;;;;5053245;28;20116;-71
2023/11/30 00:59:23;;;;;;;6.15;3.28;;;1.20;67.80;;;;;;5053031;28;20115;-71
2023/11/30 01:01:49;;;;;;;6.43;2.75;;;1.10;67.70;;;;;;5052181;28;20182;-74
2023/11/30 01:04:15;;;;;;;5.43;1.83;;;1.10;67.80;;;;;;5054406;28;20115;-71
2023/11/30 01:06:41;;;;;;;3.88;2.92;;;1.10;67.80;;;;;;5052996;28;20112;-74
2023/11/30 01:09:07;;;;;;;;;;;1.10;67.90;;;;;;5053457;28;20028;-74
2023/11/30 01:11:34;;;;;;;6.15;4.70;;;1.10;67.80;;;;;;5052049;28;19921;-71
2023/11/30 01:14:00;;;;;;;6.78;2.95;;;1.10;67.80;;;;;;5053932;28;20478;-74
2023/11/30 01:16:26;;;;;;;8.60;6.68;;;1.10;67.90;;;;;;5052896;28;20098;-73
2023/11/30 01:18:52;;;;;;;9.75;3.97;;;1.00;68.00;;;;;;5052828;28;20037;-74
2023/11/30 01:21:18;;;;;;;11.30;5.80;;;1.10;68.00;;;;;;5035000;28;20045;-74
2023/11/30 01:23:44;;;;;;;10.32;6.75;;;1.10;67.80;;;;;;5053646;28;20033;-74
2023/11/30 01:26:10;;;;;;;8.57;5.78;;;1.20;67.60;;;;;;5054238;28;20064;-71
2023/11/30 01:28:36;;;;;;;4.65;3.13;;;1.30;67.70;;;;;;5035668;28;20094;-71
2023/11/30 01:31:02;;;;;;;6.85;3.55;;;1.40;67.40;;;;;;5053227;28;20059;-74
2023/11/30 01:33:28;;;;;;;7.90;3.55;;;1.40;67.20;;;;;;5052230;28;20029;-74
2023/11/30 01:35:54;;;;;;;7.22;3.55;;;1.40;67.10;;;;;;5052465;28;20106;-74
2023/11/30 01:38:20;;;;;;;5.15;4.00;;;1.40;66.90;;;;;;5053427;28;20433;-71
2023/11/30 01:40:47;;;;;;;5.20;3.67;;;1.40;67.10;;;;;;5035141;28;20048;-72
2023/11/30 01:43:18;;;;;;;11.00;4.55;;;1.50;67.20;;;;;;5053345;28;20029;-71
2023/11/30 01:45:44;;;;;;;7.13;4.25;;;1.50;67.00;;;;;;5053202;28;20033;-72
2023/11/30 01:48:10;;;;;;;6.05;3.28;;;1.50;67.50;;;;;;5052213;28;20114;-74
2023/11/30 01:50:36;;;;;;;4.85;3.25;;;1.50;67.50;;;;;;5051151;28;20044;-71
2023/11/30 01:53:03;;;;;;;8.25;3.85;;;1.60;67.20;;;;;;5051856;28;20449;-74
2023/11/30 01:55:29;;;;;;;8.38;5.18;;;1.60;67.30;;;;;;5051768;28;20029;-74
2023/11/30 01:57:55;;;;;;;5.65;4.18;;;1.60;67.30;;;;;;5052350;28;20033;-70
2023/11/30 02:00:21;;;;;;;4.90;3.60;;;1.70;67.30;;;;;;5034326;28;20037;-71
2023/11/30 02:02:47;;;;;;;4.43;3.30;;;1.60;66.90;;;;;;5053297;28;20446;-74
2023/11/30 02:05:13;;;;;;;;;;;1.60;67.40;;;;;;5052121;28;20047;-71
2023/11/30 02:07:39;;;;;;;5.45;2.03;;;1.60;67.60;;;;;;5051989;28;20281;-71
2023/11/30 02:10:06;;;;;;;5.32;2.85;;;1.60;67.90;;;;;;5052585;28;20041;-74
2023/11/30 02:12:32;;;;;;;4.60;2.58;;;1.60;67.50;;;;;;5052893;28;20067;-73
2023/11/30 02:14:59;;;;;;;7.07;3.78;;;1.50;68.30;;;;;;5052896;28;20037;-72
2023/11/30 02:17:25;;;;;;;5.18;2.40;;;1.60;67.60;;;;;;5035094;28;20379;-71
2023/11/30 02:19:51;;;;;;;8.63;5.20;;;1.60;68.00;;;;;;5051623;28;20091;-71
2023/11/30 02:22:17;;;;;;;11.82;3.75;;;1.60;67.90;;;;;;5050579;28;20053;-71
2023/11/30 02:24:43;;;;;;;5.55;3.70;;;1.70;67.90;;;;;;5052792;28;20387;-74
2023/11/30 02:27:09;;;;;;;4.95;2.88;;;1.70;67.90;;;;;;5052947;28;20040;-71
2023/11/30 02:29:35;;;;;;;6.70;4.20;;;1.70;67.80;;;;;;5052523;28;20033;-74
2023/11/30 02:32:01;;;;;;;4.60;2.97;;;1.70;67.80;;;;;;5050755;28;20124;-74
2023/11/30 02:34:27;;;;;;;4.82;3.17;;;1.70;67.70;;;;;;5052548;28;20029;-70
2023/11/30 02:36:53;;;;;;;10.73;5.38;;;1.70;67.60;;;;;;5052916;28;20049;-73
2023/11/30 02:39:20;;;;;;;6.25;3.67;;;1.70;67.50;;;;;;5051140;28;20028;-70
2023/11/30 02:41:45;;;;;;;;;;;1.80;67.40;;;;;;5050975;28;20375;-70
2023/11/30 02:44:11;;;;;;;4.78;2.45;;;1.90;67.20;;;;;;5034198;28;19920;-73
2023/11/30 02:46:37;;;;;;;7.10;3.25;;;1.90;67.10;;;;;;5051272;28;20044;-73
2023/11/30 02:49:03;;;;;;;3.83;2.63;;;1.90;67.00;;;;;;5052324;28;20033;-70
2023/11/30 02:51:29;;;;;;;7.65;3.53;;;1.90;67.10;;;;;;5051937;28;20037;-73
2023/11/30 02:53:56;;;;;;;3.58;2.97;;;1.90;67.10;;;;;;5052395;28;20397;-73
2023/11/30 02:56:22;;;;;;;11.55;5.22;;;1.90;67.10;;;;;;5051030;28;20047;-73
2023/11/30 02:58:48;;;;;;;8.35;5.07;;;2.00;67.90;;;;;;5052257;28;20397;-70
2023/11/30 03:01:14;;;;;;;8.00;3.97;;;2.00;66.90;;;;;;5051591;28;20049;-73
2023/11/30 03:03:40;;;;;;;4.90;2.25;;;2.00;66.90;;;;;;5051183;28;20079;-73
2023/11/30 03:06:24;;;;;;;5.65;2.78;;;2.00;66.90;;;;;;5056267;28;20436;-73
2023/11/30 03:08:50;;;;;;;6.45;3.65;;;2.10;67.00;;;;;;5056230;28;20513;-73
2023/11/30 03:11:16;;;;;;;11.18;4.00;;;2.10;66.80;;;;;;5055884;28;20128;-73
2023/11/30 03:13:42;;;;;;;7.55;4.53;;;2.10;66.80;;;;;;5056056;28;20033;-73
2023/11/30 03:16:09;;;;;;;4.78;3.67;;;2.10;67.00;;;;;;5056138;28;20551;-73
2023/11/30 03:18:39;;;;;;;10.00;4.30;;;2.10;67.30;;;;;;5056126;28;20436;-73
2023/11/30 03:21:14;;;;;;;5.20;2.58;;;2.00;67.80;;;;;;5055527;28;20098;-71
2023/11/30 03:23:40;;;;;;;6.55;4.32;;;2.10;68.10;;;;;;5056100;28;20021;-70
2023/11/30 03:26:06;;;;;;;5.50;3.67;;;2.10;68.40;;;;;;5056162;28;20542;-70
2023/11/30 03:28:32;;;;;;;5.25;3.05;;;2.10;68.50;;;;;;5056208;28;20091;-70
2023/11/30 03:30:58;;;;;;;3.85;3.00;;;2.10;68.60;;;;;;5053881;28;20037;-73
2023/11/30 03:33:24;;;;;;;5.22;2.72;;;2.10;69.00;;;;;;5054735;28;20033;-70
2023/11/30 03:35:51;;;;;;;10.13;3.30;;;2.00;69.30;;;;;;5054654;28;20055;-70
2023/11/30 03:38:18;;;;;;;6.50;2.65;;;2.00;69.50;;;;;;5054462;28;20485;-72
2023/11/30 03:40:44;;;;;;;7.15;3.72;;;2.00;69.20;;;;;;5053819;28;20033;-70
2023/11/30 03:43:10;;;;;;;5.40;2.58;;;2.10;69.50;;;;;;5054190;28;20082;-70
2023/11/30 03:45:36;;;;;;;6.28;3.75;;;2.10;69.20;;;;;;5055692;28;20068;-72
2023/11/30 03:48:02;;;;;;;9.20;4.10;;;2.20;69.00;;;;;;5054417;28;20041;-70
2023/11/30 03:50:28;;;;;;;6.43;4.40;;;2.20;68.90;;;;;;5055126;28;20052;-70
2023/11/30 03:52:54;;;;;;;6.07;3.40;;;2.20;69.20;;;;;;5054334;28;20494;-69
2023/11/30 03:55:20;;;;;;;5.25;3.42;;;2.20;69.20;;;;;;5055507;28;20037;-73
2023/11/30 03:57:46;;;;;;;;;;;2.20;69.20;;;;;;5054733;28;20033;-72
2023/11/30 04:00:14;;;;;;;5.22;3.70;;;2.30;69.50;;;;;;5036896;28;20391;-70
2023/11/30 04:02:43;;;;;;;7.85;4.40;;;2.30;69.20;;;;;;5054003;28;20025;-70
2023/11/30 04:05:28;;;;;;;4.72;2.45;;;2.30;69.00;;;;;;5053961;28;20029;-70
2023/11/30 04:07:54;;;;;;;5.70;3.42;;;2.30;69.80;;;;;;5055752;28;20041;-72
2023/11/30 04:10:20;;;;;;;2.47;1.63;;;2.20;70.00;;;;;;5054485;28;20382;-72
2023/11/30 04:12:46;;;;;;;4.60;3.63;;;2.20;70.10;;;;;;5053963;28;20045;-72
2023/11/30 04:15:12;;;;;;;7.13;3.53;;;2.20;70.10;;;;;;5053636;28;20083;-72
2023/11/30 04:17:39;;;;;;;2.85;2.17;;;2.20;70.10;;;;;;5055793;28;20417;-70
2023/11/30 04:20:06;;;;;;;8.38;4.22;;;2.30;70.00;;;;;;5054215;28;20064;-73
2023/11/30 04:22:32;;;;;;;6.65;4.00;;;2.30;69.70;;;;;;5054940;28;20076;-73
2023/11/30 04:24:58;;;;;;;7.63;3.03;;;2.30;69.70;;;;;;5053775;28;20101;-72
2023/11/30 04:27:24;;;;;;;9.13;3.95;;;2.40;69.60;;;;;;5053664;28;20049;-73
2023/11/30 04:29:50;;;;;;;10.43;3.67;;;2.40;69.40;;;;;;5055154;28;20037;-71
2023/11/30 04:32:16;;;;;;;8.48;4.38;;;2.40;70.30;;;;;;5053655;28;20037;-72
2023/11/30 04:34:42;;;;;;;4.65;2.33;;;2.40;69.50;;;;;;5036900;28;20029;-72
2023/11/30 04:37:08;;;;;;;8.27;4.00;;;2.50;69.60;;;;;;5053817;28;20116;-70
2023/11/30 04:39:34;;;;;;;7.55;4.07;;;2.50;69.50;;;;;;5036753;28;20025;-70
2023/11/30 04:42:01;;;;;;;4.30;3.50;;;2.50;69.60;;;;;;5054131;28;20030;-73
2023/11/30 04:44:28;;;;;;;5.32;3.60;;;2.50;69.60;;;;;;5053062;28;20029;-71
2023/11/30 04:46:54;;;;;;;10.02;5.32;;;2.50;69.40;;;;;;5053268;28;20490;-70
2023/11/30 04:49:20;;;;;;;7.22;4.30;;;2.50;69.80;;;;;;5053215;28;20708;-70
2023/11/30 04:51:46;;;;;;;10.30;5.50;;;2.50;69.60;;;;;;5054233;28;20051;-69
2023/11/30 04:54:12;;;;;;;16.08;7.28;;;2.50;69.60;;;;;;5053009;28;20482;-72
2023/11/30 04:56:38;;;;;;;10.45;4.45;;;2.50;69.60;;;;;;5054531;28;20124;-70
2023/11/30 04:59:04;;;;;;;3.97;1.92;;;2.50;69.70;;;;;;5036235;28;20379;-73
2023/11/30 05:01:30;;;;;;;6.38;5.10;;;2.40;69.60;;;;;;5053642;28;20037;-70
2023/11/30 05:03:57;;;;;;;6.70;3.17;;;2.50;69.90;;;;;;5054066;28;20055;-70
2023/11/30 05:06:24;;;;;;;6.82;4.65;;;2.50;69.90;;;;;;5054336;28;20037;-73
2023/11/30 05:08:50;;;;;;;14.23;6.85;;;2.40;70.00;;;;;;5052538;28;20094;-71
2023/11/30 05:11:16;;;;;;;7.38;3.95;;;2.50;70.10;;;;;;5053510;28;20406;-73
2023/11/30 05:13:42;;;;;;;9.95;3.80;;;2.40;69.80;;;;;;5035965;28;20366;-70
2023/11/30 05:16:09;;;;;;;10.52;4.32;;;2.40;70.10;;;;;;5054011;28;20029;-73
2023/11/30 05:18:34;;;;;;;;;;;2.40;70.20;;;;;;5053288;28;20506;-72
2023/11/30 05:21:01;;;;;;;5.93;3.15;;;2.40;70.40;;;;;;5052957;28;20033;-70
2023/11/30 05:23:27;;;;;;;6.10;4.13;;;2.40;70.40;;;;;;5052731;28;20112;-72
2023/11/30 05:25:53;;;;;;;4.45;1.98;;;2.40;70.30;;;;;;5053594;28;20391;-73
2023/11/30 05:28:19;;;;;;;5.65;2.83;;;2.40;70.40;;;;;;5052007;28;20032;-72
2023/11/30 05:30:45;;;;;;;4.95;3.80;;;2.40;70.40;;;;;;5052973;28;20406;-73
2023/11/30 05:33:11;;;;;;;5.57;2.50;;;2.40;70.10;;;;;;5052507;28;20036;-72
2023/11/30 05:35:38;;;;;;;8.32;3.90;;;2.50;70.00;;;;;;5035653;28;20478;-70
2023/11/30 05:38:04;;;;;;;5.60;3.38;;;2.50;70.10;;;;;;5052228;28;20045;-70
2023/11/30 05:40:30;;;;;;;9.57;4.30;;;2.50;70.00;;;;;;5051676;28;20040;-73
2023/11/30 05:42:56;;;;;;;7.43;4.10;;;2.60;69.90;;;;;;5053558;28;20033;-72
2023/11/30 05:45:22;;;;;;;9.95;4.55;;;2.60;69.90;;;;;;5053550;28;20473;-72
2023/11/30 05:47:48;;;;;;;6.10;2.42;;;2.60;69.90;;;;;;5052348;28;20037;-70
2023/11/30 05:50:14;;;;;;;6.97;3.20;;;2.60;69.80;;;;;;5052513;28;20071;-73
2023/11/30 05:52:40;;;;;;;5.63;2.92;;;2.60;69.80;;;;;;5035278;28;20025;-70
2023/11/30 05:55:07;;;;;;;2.67;2.35;;;2.60;69.80;;;;;;5051956;28;20551;-73
2023/11/30 05:57:35;;;;;;;8.65;4.78;;;2.70;69.70;;;;;;5053773;28;20091;-72
2023/11/30 06:00:03;;;;;;;6.07;4.03;;;2.70;69.70;;;;;;5051869;28;20060;-73
2023/11/30 06:02:31;;;;;;;11.13;4.38;;;2.70;69.80;;;;;;5051541;28;20498;-73
2023/11/30 06:04:58;;;;;;;4.47;3.10;;;2.70;69.30;;;;;;5035379;28;20420;-73
2023/11/30 06:07:24;;;;;;;6.43;4.78;;;2.70;69.20;;;;;;5052128;28;20041;-70
2023/11/30 06:09:50;;;;;;;10.00;5.03;;;2.70;69.90;;;;;;5051515;28;20112;-73
2023/11/30 06:12:17;;;;;;;12.75;6.53;;;2.70;69.40;;;;;;5052712;28;20129;-72
2023/11/30 06:14:43;;;;;;;10.65;5.25;;;2.70;69.90;;;;;;5034843;28;20021;-72
2023/11/30 06:17:11;;;;;;;10.77;4.43;;;2.70;69.80;;;;;;5051815;28;20056;-73
2023/11/30 06:19:38;;;;;;;8.10;4.82;;;2.70;69.90;;;;;;5051587;28;20083;-71
2023/11/30 06:22:06;;;;;;;7.55;4.25;;;2.70;69.90;;;;;;5050687;28;20056;-70
2023/11/30 06:24:33;;;;;;;5.22;3.72;;;2.70;69.80;;;;;;5052774;28;20059;-72
2023/11/30 06:27:01;;;;;;;11.45;5.07;;;2.70;70.00;;;;;;5034986;28;20043;-72
2023/11/30 06:29:29;;;;;;;9.35;5.72;;;2.70;70.20;;;;;;5051505;28;20524;-70
2023/11/30 06:32:17;;;;;;;7.47;4.25;;;2.60;70.10;;;;;;5050633;28;20033;-70
2023/11/30 06:34:43;;;;;;;8.05;5.60;;;2.70;70.20;;;;;;5051298;28;20021;-70
2023/11/30 06:37:09;;;;;;;8.52;4.57;;;2.70;70.00;;;;;;5051609;28;20378;-69
2023/11/30 06:39:35;;;;;;;6.60;4.03;;;2.80;69.80;;;;;;5051665;28;20033;-73
2023/11/30 06:42:01;;;;;;;9.13;4.13;;;2.80;69.80;;;;;;5052076;28;20056;-73
2023/11/30 06:44:27;;;;;;;14.77;4.20;;;2.80;69.80;;;;;;5050935;28;20021;-70
2023/11/30 06:46:53;;;;;;;14.93;5.18;;;2.90;69.90;;;;;;5034572;28;20448;-70
2023/11/30 06:49:19;;;;;;;4.25;3.30;;;2.80;69.80;;;;;;5051036;28;20040;-73
2023/11/30 06:51:45;;;;;;;8.48;4.97;;;2.80;69.90;;;;;;5051836;28;20448;-70
2023/11/30 06:54:11;;;;;;;5.97;2.85;;;2.90;70.20;;;;;;5052075;28;20477;-73
2023/11/30 06:56:37;;;;;;;5.53;3.75;;;2.90;70.20;;;;;;5052467;28;20095;-73
2023/11/30 06:59:03;;;;;;;5.53;4.50;;;2.90;70.90;;;;;;5052242;28;20086;-69
2023/11/30 07:01:30;;;;;;;9.32;4.13;;;2.80;70.00;;;;;;5050348;28;20037;-73
2023/11/30 07:03:56;;;;;;;5.05;3.83;;;2.90;70.10;;;;;;5050669;28;20033;-70
2023/11/30 07:06:23;;;;;;;24.60;3.30;;;2.90;69.90;;;;;;5050902;28;20041;-70
2023/11/30 07:08:49;;;;;;;5.68;3.58;;;3.00;70.00;;;;;;5050687;28;20035;-70
2023/11/30 07:11:15;;;;;;;11.32;4.28;;;3.00;69.90;;;;;;5033585;28;20033;-70
2023/11/30 07:13:41;;;;;;;9.23;4.40;;;3.00;69.90;;;;;;5051902;28;20032;-73
2023/11/30 07:16:08;;;;;;;8.35;6.07;;;3.00;70.00;;;;;;5050921;28;20045;-70
2023/11/30 07:18:34;;;;;;;6.00;4.07;;;3.00;70.00;;;;;;5034329;28;20025;-73
2023/11/30 07:21:00;;;;;;;9.82;4.47;;;3.00;70.10;;;;;;5051185;28;20505;-70
2023/11/30 07:23:26;;;;;;;7.55;3.67;;;3.00;70.10;;;;;;5052077;28;20506;-70
2023/11/30 07:25:52;;;;;;;6.28;4.15;;;3.00;70.30;;;;;;5050694;28;20088;-73
2023/11/30 07:28:19;;;;;;;8.57;4.20;;;3.10;70.10;;;;;;5052269;28;20075;-72
2023/11/30 07:30:46;;;;;;;7.13;3.38;;;3.10;70.10;;;;;;5051064;28;20036;-73
2023/11/30 07:33:13;;;;;;;10.48;7.75;;;3.10;70.00;;;;;;5051981;28;20083;-71
2023/11/30 07:35:39;;;;;;;10.27;5.45;;;3.20;70.20;;;;;;5050618;28;20028;-73
2023/11/30 07:38:05;;;;;;;;;;;3.20;70.20;;;;;;5051138;28;20459;-70
2023/11/30 07:40:32;;;;;;;6.70;3.92;;;3.30;70.00;;;;;;5051348;28;20346;-70
2023/11/30 07:42:59;;;;;;;9.73;4.72;;;3.30;70.00;;;;;;5050532;28;20040;-69
2023/11/30 07:45:26;;;;;;;9.10;4.53;;;3.30;69.70;;;;;;5050747;28;20037;-70
2023/11/30 07:47:52;;;;;;;7.82;4.05;;;3.40;69.80;;;;;;5050689;28;20029;-73
2023/11/30 07:50:18;;;;;;;9.73;4.93;;;3.50;69.80;;;;;;5051093;28;20041;-70
2023/11/30 07:52:44;;;;;;;4.75;2.70;;;3.60;69.60;;;;;;5054414;28;20090;-70
2023/11/30 07:55:10;;;;;;;4.47;2.63;;;3.60;69.50;;;;;;5055644;28;20490;-70
2023/11/30 07:57:37;;;;;;;5.30;3.75;;;3.60;69.30;;;;;;5054573;28;20033;-71
2023/11/30 08:00:07;;;;;;;5.45;2.90;;;3.70;68.80;;;;;;5055092;28;20033;-73
2023/11/30 08:02:34;;;;;;;10.85;3.38;;;3.70;69.20;;;;;;5054277;28;20025;-71
2023/11/30 08:05:00;;;;;;;6.65;4.15;;;3.80;69.20;;;;;;5053956;28;20037;-70
2023/11/30 08:07:26;;;;;;;;;;;3.90;68.90;;;;;;5054948;28;20078;-71
2023/11/30 08:09:52;;;;;;;5.60;3.28;;;3.90;69.00;;;;;;5037336;28;19921;-73
2023/11/30 08:12:18;;;;;;;9.23;4.10;;;4.00;68.40;;;;;;5053433;28;20033;-71
2023/11/30 08:14:44;;;;;;;6.10;4.13;;;4.20;68.40;;;;;;5053833;28;20421;-73
2023/11/30 08:17:10;;;;;;;7.13;2.80;;;4.30;68.10;;;;;;5055363;28;20064;-73
2023/11/30 08:19:36;;;;;;;4.97;3.30;;;4.40;67.90;;;;;;5055061;28;20495;-73
2023/11/30 08:22:02;;;;;;;4.10;2.55;;;4.50;68.00;;;;;;5053120;28;20087;-73
2023/11/30 08:24:29;;;;;;;5.20;2.17;;;4.50;67.90;;;;;;5053730;28;20061;-73
2023/11/30 08:26:55;;;;;;;8.13;4.43;;;4.50;67.80;;;;;;5054703;28;20112;-70
2023/11/30 08:29:21;;;;;;;6.93;3.22;;;4.50;67.90;;;;;;5053242;28;20385;-73
2023/11/30 08:31:47;;;;;;;7.20;3.17;;;4.60;67.80;;;;;;5054437;28;20476;-73
2023/11/30 08:34:13;;;;;;;4.50;2.97;;;4.80;67.50;;;;;;5054845;28;20021;-70
2023/11/30 08:36:39;;;;;;;7.32;3.17;;;4.90;67.20;;;;;;5053706;28;20044;-73
2023/11/30 08:39:05;;;;;;;4.03;2.38;;;5.00;66.80;;;;;;5053262;28;20025;-73
2023/11/30 08:41:31;;;;;;;;;;;5.00;66.80;;;;;;5054730;28;20041;-71
2023/11/30 08:43:57;;;;;;;6.03;3.25;;;5.10;66.90;;;;;;5053258;28;19920;-71
2023/11/30 08:46:23;;;;;;;5.63;3.55;;;5.00;66.40;;;;;;5053504;28;20437;-71
2023/11/30 08:48:49;;;;;;;6.53;2.92;;;5.10;66.60;;;;;;5053157;28;20037;-73
2023/11/30 08:51:15;;;;;;;4.78;2.58;;;5.10;66.60;;;;;;5035921;28;20037;-70
2023/11/30 08:53:41;;;;;;;7.47;2.45;;;5.20;66.40;;;;;;5054294;28;20029;-73
2023/11/30 08:56:08;;;;;;;4.38;2.13;;;5.30;66.30;;;;;;5053062;28;20531;-70
2023/11/30 08:58:34;;;;;;;8.10;2.50;;;5.40;66.00;;;;;;5036568;28;20025;-73
2023/11/30 09:01:00;;;;;;;7.45;3.20;;;5.60;65.70;;;;;;5053618;28;20041;-70
2023/11/30 09:03:26;;;;;;;5.50;3.67;;;5.70;65.60;;;;;;5052294;28;20029;-73
2023/11/30 09:05:52;;;;;;;6.45;2.83;;;5.70;65.50;;;;;;5052842;28;20033;-71
2023/11/30 09:08:18;;;;;;;2.30;1.50;;;5.70;65.50;;;;;;5054297;28;20039;-70
2023/11/30 09:10:44;;;;;;;5.65;2.13;;;5.80;65.30;;;;;;5053358;28;20029;-70
2023/11/30 09:13:11;;;;;;;6.13;2.40;;;5.80;65.30;;;;;;5053763;28;20033;-70
2023/11/30 09:15:37;;;;;;;;;;;5.80;65.50;;;;;;5053384;28;20087;-70
2023/11/30 09:18:03;;;;;;;6.43;4.20;;;5.80;65.70;;;;;;5086377;28;20335;-72
2023/11/30 09:20:29;;;;;;;;;;;5.80;65.00;;;;;;5053795;28;20052;-70
2023/11/30 09:22:56;;;;;;;4.75;2.53;;;5.80;64.70;;;;;;5086065;28;19928;-72
2023/11/30 09:25:22;;;;;;;;;;;5.90;63.90;;;;;;5054288;28;20036;-71
2023/11/30 09:27:48;;;;;;;3.40;2.22;;;5.90;64.40;;;;;;5053623;28;19966;-73
2023/11/30 09:30:14;;;;;;;4.95;2.42;;;6.00;64.00;;;;;;5052795;28;20033;-70
2023/11/30 09:32:40;;;;;;;3.38;1.55;;;6.10;63.10;;;;;;5052439;28;20461;-70
2023/11/30 09:35:07;;;;;;;;;;;6.20;63.50;;;;;;5054564;28;20033;-73
2023/11/30 09:37:33;;;;;;;2.60;1.67;;;6.20;63.10;;;;;;5054129;28;19917;-73
2023/11/30 09:39:59;;;;;;;2.95;2.58;;;6.40;63.50;;;;;;5053491;28;20386;-70
2023/11/30 09:42:26;;;;;;;4.25;3.15;;;6.60;63.10;;;;;;5035034;28;20114;-70
2023/11/30 09:44:58;;;;;;;7.00;3.38;;;6.70;62.90;;;;;;5035421;28;20124;-70
2023/11/30 09:47:24;;;;;;;2.35;1.42;;;6.70;62.80;;;;;;5052609;28;20041;-71
2023/11/30 09:49:50;;;;;;;4.20;2.65;;;6.80;62.70;;;;;;5052013;28;20421;-73
2023/11/30 09:52:17;;;;;;;2.13;1.17;;;6.90;62.40;;;;;;5051749;28;20045;-73
2023/11/30 09:54:43;;;;;;;2.45;1.90;;;7.00;61.70;;;;;;5051811;28;20382;-71
2023/11/30 09:57:10;;;;;;;4.35;1.75;;;7.00;61.60;;;;;;5051994;28;20033;-73
2023/11/30 09:59:36;;;;;;;2.33;1.33;;;6.90;61.20;;;;;;5053218;28;20078;-70
2023/11/30 10:02:02;;;;;;;4.00;1.35;;;6.90;62.40;;;;;;5052808;28;20044;-72
2023/11/30 10:04:28;;;;;;;5.82;2.53;;;6.90;62.40;;;;;;5053047;28;20060;-70
2023/11/30 10:06:56;;;;;;;1.85;1.10;;;6.80;62.50;;;;;;5053263;28;20116;-73
2023/11/30 10:09:23;;;;;;;1.73;1.60;;;6.80;62.30;;;;;;5035022;28;20043;-70
2023/11/30 10:11:49;;;;;;;2.50;1.48;;;6.70;62.10;;;;;;5052233;28;20037;-70
2023/11/30 10:14:17;;;;;;;;;;;6.70;61.90;;;;;;5053037;28;20040;-70
2023/11/30 10:16:44;;;;;;;2.05;0.88;;;6.70;62.80;;;;;;5051684;28;20318;-70
2023/11/30 10:19:13;;;;;;;7.57;2.03;;;6.80;62.70;;;;;;5052018;28;20481;-72
2023/11/30 10:21:40;;;;;;;3.05;2.42;;;6.80;62.70;;;;;;5052034;28;20064;-71
2023/11/30 10:24:07;;;;;;;1.50;1.40;;;6.80;62.70;;;;;;5052596;28;20025;-70
2023/11/30 10:26:36;;;;;;;1.42;1.00;;;6.70;62.90;;;;;;5052778;28;20071;-73
2023/11/30 10:29:04;;;;;;;12.68;3.47;;;6.70;63.20;;;;;;5052583;28;20052;-70
2023/11/30 10:31:35;;;;;;;6.30;3.90;;;6.60;63.20;;;;;;5051623;28;20037;-70
2023/11/30 10:34:59;;;;;;;2.72;1.95;;;6.60;63.20;;;;;;5051547;28;20037;-70
2023/11/30 10:37:28;;;;;;;6.32;3.78;;;6.50;63.90;;;;;;5052901;28;20099;-73
2023/11/30 10:40:09;;;;;;;5.22;3.03;;;6.50;64.00;;;;;;5051315;28;20055;-73
2023/11/30 10:42:35;;;;;;;3.17;2.78;;;6.40;64.40;;;;;;5050700;28;20093;-73
2023/11/30 10:45:03;;;;;;;;;;;6.40;64.30;;;;;;5052909;28;20075;-73
2023/11/30 10:47:30;;;;;;;3.55;2.88;;;6.40;65.00;;;;;;5051321;28;20344;-70
2023/11/30 10:49:59;;;;;;;5.43;2.42;;;6.30;65.10;;;;;;5051313;28;20390;-73
2023/11/30 10:52:28;;;;;;;6.30;2.60;;;6.30;65.30;;;;;;5050539;28;20037;-70
2023/11/30 10:55:17;;;;;;;8.75;2.47;;;6.30;65.40;;;;;;5051015;28;20055;-70
2023/11/30 10:57:44;;;;;;;8.98;2.70;;;6.40;65.50;;;;;;5051401;28;20052;-73
2023/11/30 11:00:16;;;;;;;7.80;3.40;;;6.40;65.60;;;;;;5050603;28;20505;-70
2023/11/30 11:02:47;;;;;;;5.22;2.15;;;6.40;65.60;;;;;;5051207;28;20055;-70
2023/11/30 11:05:18;;;;;;;4.65;2.47;;;6.40;65.50;;;;;;5050920;28;20025;-70
2023/11/30 11:08:05;;;;;;;3.22;2.05;;;6.30;65.90;;;;;;5052759;28;20295;-70
2023/11/30 11:10:38;;;;;;;6.65;1.60;;;6.40;66.20;;;;;;5051643;28;20029;-73
2023/11/30 11:13:06;;;;;;;2.05;1.73;;;6.40;66.30;;;;;;5034624;28;20071;-70
2023/11/30 11:15:32;;;;;;;3.58;1.63;;;6.40;66.50;;;;;;5050827;28;20096;-70
2023/11/30 11:18:03;;;;;;;1.92;1.45;;;6.40;66.70;;;;;;5051119;28;20041;-71
2023/11/30 11:20:31;;;;;;;1.23;0.95;;;6.30;66.50;;;;;;5050193;28;20037;-73
2023/11/30 11:23:11;;;;;;;1.30;1.13;;;6.30;66.50;;;;;;5052149;28;20049;-73
2023/11/30 11:25:57;;;;;;;3.60;2.17;;;6.30;66.70;;;;;;5052297;28;20064;-73
2023/11/30 11:28:24;;;;;;;3.78;2.55;;;6.30;66.80;;;;;;5055954;28;20086;-72
2023/11/30 11:30:51;;;;;;;2.63;1.58;;;6.20;66.80;;;;;;5055212;28;20082;-70
2023/11/30 11:33:20;;;;;;;5.28;3.78;;;6.20;66.80;;;;;;5055818;28;20040;-70
2023/11/30 11:35:47;;;;;;;3.72;2.47;;;6.10;66.80;;;;;;5054693;28;20025;-70
2023/11/30 11:38:13;;;;;;;6.43;3.13;;;6.10;67.00;;;;;;5056257;28;20033;-73
2023/11/30 11:40:41;;;;;;;4.25;2.92;;;6.00;66.80;;;;;;5054910;28;20033;-73
2023/11/30 11:43:07;;;;;;;6.03;2.97;;;6.00;66.80;;;;;;5055758;28;20387;-73
2023/11/30 11:45:35;;;;;;;5.43;2.70;;;6.00;66.80;;;;;;5054351;28;20031;-72
2023/11/30 11:48:02;;;;;;;6.03;1.98;;;6.00;66.60;;;;;;5055794;28;20116;-73
2023/11/30 11:50:28;;;;;;;4.38;3.67;;;5.90;66.80;;;;;;5053600;28;20037;-73
2023/11/30 11:53:07;;;;;;;;;;;5.80;67.10;;;;;;5056783;28;20033;-73
2023/11/30 11:55:33;;;;;;;3.28;2.60;;;5.80;67.00;;;;;;5087757;28;19916;-72
2023/11/30 11:57:59;;;;;;;4.47;2.22;;;5.80;67.20;;;;;;5054355;28;20037;-73
2023/11/30 12:00:25;;;;;;;2.50;1.63;;;5.80;67.30;;;;;;5036944;28;20037;-72
2023/11/30 12:02:52;;;;;;;;;;;5.70;67.50;;;;;;5054876;28;20040;-70
2023/11/30 12:05:24;;;;;;;2.65;1.55;;;5.70;66.80;;;;;;5051165;28;19959;-73
2023/11/30 12:08:09;;;;;;;3.45;1.63;;;5.70;67.50;;;;;;5038193;28;20107;-73
2023/11/30 12:10:53;;;;;;;5.80;3.25;;;5.80;67.70;;;;;;5054655;28;20128;-70
2023/11/30 12:13:26;;;;;;;3.67;2.67;;;5.80;67.80;;;;;;5053633;28;20072;-73
2023/11/30 12:16:05;;;;;;;3.30;2.33;;;5.80;67.60;;;;;;5054176;28;20036;-70
2023/11/30 12:18:31;;;;;;;15.68;3.63;;;5.80;67.60;;;;;;5055053;28;20078;-71
2023/11/30 12:20:57;;;;;;;;;;;5.80;67.60;;;;;;5053573;28;20367;-71
2023/11/30 12:23:23;;;;;;;6.82;4.25;;;5.90;67.40;;;;;;5055011;28;19963;-72
2023/11/30 12:25:49;;;;;;;5.45;3.28;;;5.90;67.30;;;;;;5054806;28;20021;-73
2023/11/30 12:28:15;;;;;;;5.18;3.22;;;5.90;67.50;;;;;;5054937;28;20540;-73
2023/11/30 12:30:41;;;;;;;3.65;2.75;;;5.90;67.80;;;;;;5054161;28;20028;-73
2023/11/30 12:33:07;;;;;;;5.03;2.42;;;5.90;67.90;;;;;;5054839;28;20059;-70
2023/11/30 12:35:33;;;;;;;5.70;4.20;;;5.80;67.90;;;;;;5054643;28;20485;-72
2023/11/30 12:37:59;;;;;;;5.28;2.35;;;5.80;68.00;;;;;;5052568;28;20041;-70
2023/11/30 12:40:25;;;;;;;1.98;1.65;;;5.90;68.20;;;;;;5054219;28;20041;-73
2023/11/30 12:42:51;;;;;;;3.38;2.08;;;5.80;68.20;;;;;;5053265;28;20056;-70
2023/11/30 12:45:18;;;;;;;3.35;1.67;;;5.90;68.40;;;;;;5053474;28;20421;-72
2023/11/30 12:47:45;;;;;;;7.90;3.58;;;5.80;68.40;;;;;;5036668;28;22045;-70
2023/11/30 12:50:12;;;;;;;2.15;1.23;;;5.90;68.50;;;;;;5052347;28;20033;-70
2023/11/30 12:52:38;;;;;;;23.23;3.47;;;5.80;68.50;;;;;;5053316;28;20037;-73
2023/11/30 12:55:05;;;;;;;5.55;2.65;;;5.80;68.40;;;;;;5054391;28;20537;-73
2023/11/30 12:57:34;;;;;;;4.18;2.75;;;5.80;67.80;;;;;;5054912;28;20057;-70
2023/11/30 13:00:01;;;;;;;7.40;2.90;;;5.80;68.60;;;;;;5054306;28;20312;-70